sensor_id;sensor_type;location;lat;lon;timestamp;temperature;humidity
5899;DHT22;2975;50.956;6.962;2024-01-11T00:00:44;-3.80;99.90
5899;DHT22;2975;50.956;6.962;2024-01-11T00:03:10;-3.80;99.90
5899;DHT22;2975;50.956;6.962;2024-01-11T00:05:36;-3.80;99.90
5899;DHT22;2975;50.956;6.962;2024-01-11T00:08:02;-3.80;99.90
5899;DHT22;2975;50.956;6.962;2024-01-11T00:10:28;-3.80;99.90
5899;DHT22;2975;50.956;6.962;2024-01-11T00:12:53;-3.80;99.90
5899;DHT22;2975;50.956;6.962;2024-01-11T00:15:19;-3.90;99.90
5899;DHT22;2975;50.956;6.962;2024-01-11T00:17:45;-3.90;99.90
5899;DHT22;2975;50.956;6.962;2024-01-11T00:20:10;-3.90;99.90
5899;DHT22;2975;50.956;6.962;2024-01-11T00:22:36;-3.90;99.90
5899;DHT22;2975;50.956;6.962;2024-01-11T00:25:02;-3.80;99.90
5899;DHT22;2975;50.956;6.962;2024-01-11T00:27:29;-3.70;99.90
5899;DHT22;2975;50.956;6.962;2024-01-11T00:29:54;-3.70;99.90
5899;DHT22;2975;50.956;6.962;2024-01-11T00:32:20;-3.80;99.90
5899;DHT22;2975;50.956;6.962;2024-01-11T00:34:49;-3.80;99.90
5899;DHT22;2975;50.956;6.962;2024-01-11T00:37:14;-3.90;99.90
5899;DHT22;2975;50.956;6.962;2024-01-11T00:39:41;-4.00;99.90
5899;DHT22;2975;50.956;6.962;2024-01-11T00:42:06;-4.00;99.90
5899;DHT22;2975;50.956;6.962;2024-01-11T00:44:32;-3.90;99.90
5899;DHT22;2975;50.956;6.962;2024-01-11T00:46:58;-3.90;99.90
5899;DHT22;2975;50.956;6.962;2024-01-11T00:49:23;-3.90;99.90
5899;DHT22;2975;50.956;6.962;2024-01-11T00:51:49;-3.90;99.90
5899;DHT22;2975;50.956;6.962;2024-01-11T00:54:14;-3.90;99.90
5899;DHT22;2975;50.956;6.962;2024-01-11T00:56:40;-3.90;99.90
5899;DHT22;2975;50.956;6.962;2024-01-11T00:59:06;-3.90;99.90
5899;DHT22;2975;50.956;6.962;2024-01-11T01:01:31;-3.80;99.90
5899;DHT22;2975;50.956;6.962;2024-01-11T01:03:57;-3.80;99.90
5899;DHT22;2975;50.956;6.962;2024-01-11T01:06:23;-3.80;99.90
5899;DHT22;2975;50.956;6.962;2024-01-11T01:08:48;-3.90;99.90
5899;DHT22;2975;50.956;6.962;2024-01-11T01:11:14;-3.90;99.90
5899;DHT22;2975;50.956;6.962;2024-01-11T01:13:39;-4.00;99.90
5899;DHT22;2975;50.956;6.962;2024-01-11T01:16:05;-4.00;99.90
5899;DHT22;2975;50.956;6.962;2024-01-11T01:18:31;-3.90;99.90
5899;DHT22;2975;50.956;6.962;2024-01-11T01:20:56;-3.80;99.90
5899;DHT22;2975;50.956;6.962;2024-01-11T01:23:22;-3.80;99.90
5899;DHT22;2975;50.956;6.962;2024-01-11T01:25:48;-3.80;99.90
5899;DHT22;2975;50.956;6.962;2024-01-11T01:28:14;-3.90;99.90
5899;DHT22;2975;50.956;6.962;2024-01-11T01:30:40;-3.90;99.90
5899;DHT22;2975;50.956;6.962;2024-01-11T01:33:05;-4.00;99.90
5899;DHT22;2975;50.956;6.962;2024-01-11T01:35:31;-4.00;99.90
5899;DHT22;2975;50.956;6.962;2024-01-11T01:37:57;-4.00;99.90
5899;DHT22;2975;50.956;6.962;2024-01-11T01:40:23;-3.90;99.90
5899;DHT22;2975;50.956;6.962;2024-01-11T01:42:49;-4.00;99.90
5899;DHT22;2975;50.956;6.962;2024-01-11T01:45:15;-4.00;99.90
5899;DHT22;2975;50.956;6.962;2024-01-11T01:47:42;-4.10;99.90
5899;DHT22;2975;50.956;6.962;2024-01-11T01:50:09;-4.10;99.90
5899;DHT22;2975;50.956;6.962;2024-01-11T01:52:36;-4.10;99.90
5899;DHT22;2975;50.956;6.962;2024-01-11T01:55:03;-4.10;99.90
5899;DHT22;2975;50.956;6.962;2024-01-11T01:57:30;-4.10;99.90
5899;DHT22;2975;50.956;6.962;2024-01-11T01:59:57;-4.10;99.90
5899;DHT22;2975;50.956;6.962;2024-01-11T02:02:23;-4.10;99.90
5899;DHT22;2975;50.956;6.962;2024-01-11T02:04:49;-4.10;99.90
5899;DHT22;2975;50.956;6.962;2024-01-11T02:07:15;-4.20;99.90
5899;DHT22;2975;50.956;6.962;2024-01-11T02:09:43;-4.20;99.90
5899;DHT22;2975;50.956;6.962;2024-01-11T02:12:10;-4.20;99.90
5899;DHT22;2975;50.956;6.962;2024-01-11T02:14:37;-4.20;99.90
5899;DHT22;2975;50.956;6.962;2024-01-11T02:17:03;-4.20;99.90
5899;DHT22;2975;50.956;6.962;2024-01-11T02:19:29;-4.10;99.90
5899;DHT22;2975;50.956;6.962;2024-01-11T02:21:54;-4.10;99.90
5899;DHT22;2975;50.956;6.962;2024-01-11T02:24:20;-4.10;99.90
5899;DHT22;2975;50.956;6.962;2024-01-11T02:27:00;-4.10;99.90
5899;DHT22;2975;50.956;6.962;2024-01-11T02:29:26;-4.10;99.90
5899;DHT22;2975;50.956;6.962;2024-01-11T02:31:52;-4.10;99.90
5899;DHT22;2975;50.956;6.962;2024-01-11T02:34:18;-4.10;99.90
5899;DHT22;2975;50.956;6.962;2024-01-11T02:36:44;-4.10;99.90
5899;DHT22;2975;50.956;6.962;2024-01-11T02:39:11;-4.10;99.90
5899;DHT22;2975;50.956;6.962;2024-01-11T02:41:37;-4.10;99.90
5899;DHT22;2975;50.956;6.962;2024-01-11T02:44:03;-4.20;99.90
5899;DHT22;2975;50.956;6.962;2024-01-11T02:46:30;-4.20;99.90
5899;DHT22;2975;50.956;6.962;2024-01-11T02:48:56;-4.20;99.90
5899;DHT22;2975;50.956;6.962;2024-01-11T02:51:21;-4.20;99.90
5899;DHT22;2975;50.956;6.962;2024-01-11T02:53:47;-4.20;99.90
5899;DHT22;2975;50.956;6.962;2024-01-11T02:56:12;-4.20;99.90
5899;DHT22;2975;50.956;6.962;2024-01-11T02:58:38;-4.20;99.90
5899;DHT22;2975;50.956;6.962;2024-01-11T03:01:03;-4.20;99.90
5899;DHT22;2975;50.956;6.962;2024-01-11T03:03:29;-4.20;99.90
5899;DHT22;2975;50.956;6.962;2024-01-11T03:05:54;-4.30;99.90
5899;DHT22;2975;50.956;6.962;2024-01-11T03:08:20;-4.30;99.90
5899;DHT22;2975;50.956;6.962;2024-01-11T03:10:46;-4.30;99.90
5899;DHT22;2975;50.956;6.962;2024-01-11T03:13:11;-4.30;99.90
5899;DHT22;2975;50.956;6.962;2024-01-11T03:15:38;-4.40;99.90
5899;DHT22;2975;50.956;6.962;2024-01-11T03:18:04;-4.50;99.90
5899;DHT22;2975;50.956;6.962;2024-01-11T03:20:30;-4.50;99.90
5899;DHT22;2975;50.956;6.962;2024-01-11T03:22:55;-4.60;99.90
5899;DHT22;2975;50.956;6.962;2024-01-11T03:25:21;-4.70;99.90
5899;DHT22;2975;50.956;6.962;2024-01-11T03:27:47;-4.70;99.90
5899;DHT22;2975;50.956;6.962;2024-01-11T03:30:12;-4.60;99.90
5899;DHT22;2975;50.956;6.962;2024-01-11T03:32:38;-4.60;99.90
5899;DHT22;2975;50.956;6.962;2024-01-11T03:35:07;-4.50;99.90
5899;DHT22;2975;50.956;6.962;2024-01-11T03:37:32;-4.50;99.90
5899;DHT22;2975;50.956;6.962;2024-01-11T03:39:58;-4.60;99.90
5899;DHT22;2975;50.956;6.962;2024-01-11T03:42:24;-4.60;99.90
5899;DHT22;2975;50.956;6.962;2024-01-11T03:44:50;-4.60;99.90
5899;DHT22;2975;50.956;6.962;2024-01-11T03:47:15;-4.50;99.90
5899;DHT22;2975;50.956;6.962;2024-01-11T03:49:41;-4.50;99.90
5899;DHT22;2975;50.956;6.962;2024-01-11T03:52:06;-4.60;99.90
5899;DHT22;2975;50.956;6.962;2024-01-11T03:54:32;-4.60;99.90
5899;DHT22;2975;50.956;6.962;2024-01-11T03:56:58;-4.60;99.90
5899;DHT22;2975;50.956;6.962;2024-01-11T03:59:23;-4.60;99.90
5899;DHT22;2975;50.956;6.962;2024-01-11T04:01:49;-4.60;99.90
5899;DHT22;2975;50.956;6.962;2024-01-11T04:04:14;-4.50;99.90
5899;DHT22;2975;50.956;6.962;2024-01-11T04:06:40;-4.50;99.90
5899;DHT22;2975;50.956;6.962;2024-01-11T04:09:05;-4.60;99.90
5899;DHT22;2975;50.956;6.962;2024-01-11T04:11:31;-4.60;99.90
5899;DHT22;2975;50.956;6.962;2024-01-11T04:13:57;-4.60;99.90
5899;DHT22;2975;50.956;6.962;2024-01-11T04:16:23;-4.70;99.90
5899;DHT22;2975;50.956;6.962;2024-01-11T04:18:48;-4.80;99.90
5899;DHT22;2975;50.956;6.962;2024-01-11T04:21:24;-4.90;99.90
5899;DHT22;2975;50.956;6.962;2024-01-11T04:23:50;-5.00;99.90
5899;DHT22;2975;50.956;6.962;2024-01-11T04:26:17;-5.00;99.90
5899;DHT22;2975;50.956;6.962;2024-01-11T04:28:45;-5.10;99.90
5899;DHT22;2975;50.956;6.962;2024-01-11T04:31:10;-5.10;99.90
5899;DHT22;2975;50.956;6.962;2024-01-11T04:33:40;-5.10;99.90
5899;DHT22;2975;50.956;6.962;2024-01-11T04:36:06;-5.10;99.90
5899;DHT22;2975;50.956;6.962;2024-01-11T04:38:31;-5.10;99.90
5899;DHT22;2975;50.956;6.962;2024-01-11T04:40:57;-5.10;99.90
5899;DHT22;2975;50.956;6.962;2024-01-11T04:43:22;-5.10;99.90
5899;DHT22;2975;50.956;6.962;2024-01-11T04:45:48;-5.00;99.90
5899;DHT22;2975;50.956;6.962;2024-01-11T04:48:13;-5.10;99.90
5899;DHT22;2975;50.956;6.962;2024-01-11T04:50:39;-5.10;99.90
5899;DHT22;2975;50.956;6.962;2024-01-11T04:53:04;-5.10;99.90
5899;DHT22;2975;50.956;6.962;2024-01-11T04:55:30;-5.10;99.90
5899;DHT22;2975;50.956;6.962;2024-01-11T04:57:55;-5.10;99.90
5899;DHT22;2975;50.956;6.962;2024-01-11T05:00:21;-5.10;99.90
5899;DHT22;2975;50.956;6.962;2024-01-11T05:02:47;-5.10;99.90
5899;DHT22;2975;50.956;6.962;2024-01-11T05:05:12;-5.10;99.90
5899;DHT22;2975;50.956;6.962;2024-01-11T05:07:38;-5.20;99.90
5899;DHT22;2975;50.956;6.962;2024-01-11T05:10:04;-5.20;99.90
5899;DHT22;2975;50.956;6.962;2024-01-11T05:12:30;-5.30;99.90
5899;DHT22;2975;50.956;6.962;2024-01-11T05:14:55;-5.40;99.90
5899;DHT22;2975;50.956;6.962;2024-01-11T05:17:21;-5.30;99.90
5899;DHT22;2975;50.956;6.962;2024-01-11T05:19:46;-5.30;99.90
5899;DHT22;2975;50.956;6.962;2024-01-11T05:22:12;-5.30;99.90
5899;DHT22;2975;50.956;6.962;2024-01-11T05:24:37;-5.30;99.90
5899;DHT22;2975;50.956;6.962;2024-01-11T05:27:03;-5.20;99.90
5899;DHT22;2975;50.956;6.962;2024-01-11T05:29:29;-5.20;99.90
5899;DHT22;2975;50.956;6.962;2024-01-11T05:31:54;-5.20;99.90
5899;DHT22;2975;50.956;6.962;2024-01-11T05:34:20;-5.10;99.90
5899;DHT22;2975;50.956;6.962;2024-01-11T05:36:46;-5.10;99.90
5899;DHT22;2975;50.956;6.962;2024-01-11T05:39:12;-5.20;99.90
5899;DHT22;2975;50.956;6.962;2024-01-11T05:41:37;-5.20;99.90
5899;DHT22;2975;50.956;6.962;2024-01-11T05:44:03;-5.20;99.90
5899;DHT22;2975;50.956;6.962;2024-01-11T05:46:29;-5.20;99.90
5899;DHT22;2975;50.956;6.962;2024-01-11T05:48:56;-5.30;99.90
5899;DHT22;2975;50.956;6.962;2024-01-11T05:51:21;-5.30;99.90
5899;DHT22;2975;50.956;6.962;2024-01-11T05:53:47;-5.30;99.90
5899;DHT22;2975;50.956;6.962;2024-01-11T05:56:12;-5.30;99.90
5899;DHT22;2975;50.956;6.962;2024-01-11T05:58:39;-5.20;99.90
5899;DHT22;2975;50.956;6.962;2024-01-11T06:01:05;-5.20;99.90
5899;DHT22;2975;50.956;6.962;2024-01-11T06:03:31;-5.30;99.90
5899;DHT22;2975;50.956;6.962;2024-01-11T06:06:00;-5.20;99.90
5899;DHT22;2975;50.956;6.962;2024-01-11T06:08:25;-5.20;99.90
5899;DHT22;2975;50.956;6.962;2024-01-11T06:10:52;-5.20;99.90
5899;DHT22;2975;50.956;6.962;2024-01-11T06:13:17;-5.20;99.90
5899;DHT22;2975;50.956;6.962;2024-01-11T06:15:44;-5.20;99.90
5899;DHT22;2975;50.956;6.962;2024-01-11T06:18:09;-5.20;99.90
5899;DHT22;2975;50.956;6.962;2024-01-11T06:20:35;-5.20;99.90
5899;DHT22;2975;50.956;6.962;2024-01-11T06:23:01;-5.20;99.90
5899;DHT22;2975;50.956;6.962;2024-01-11T06:25:26;-5.30;99.90
5899;DHT22;2975;50.956;6.962;2024-01-11T06:27:52;-5.40;99.90
5899;DHT22;2975;50.956;6.962;2024-01-11T06:30:17;-5.40;99.90
5899;DHT22;2975;50.956;6.962;2024-01-11T06:32:43;-5.30;99.90
5899;DHT22;2975;50.956;6.962;2024-01-11T06:35:08;-5.30;99.90
5899;DHT22;2975;50.956;6.962;2024-01-11T06:37:34;-5.30;99.90
5899;DHT22;2975;50.956;6.962;2024-01-11T06:40:00;-5.20;99.90
5899;DHT22;2975;50.956;6.962;2024-01-11T06:42:26;-5.10;99.90
5899;DHT22;2975;50.956;6.962;2024-01-11T06:44:51;-5.00;99.90
5899;DHT22;2975;50.956;6.962;2024-01-11T06:47:17;-5.10;99.90
5899;DHT22;2975;50.956;6.962;2024-01-11T06:49:43;-5.10;99.90
5899;DHT22;2975;50.956;6.962;2024-01-11T06:52:08;-5.10;99.90
5899;DHT22;2975;50.956;6.962;2024-01-11T06:54:34;-5.10;99.90
5899;DHT22;2975;50.956;6.962;2024-01-11T06:57:00;-5.10;99.90
5899;DHT22;2975;50.956;6.962;2024-01-11T06:59:25;-5.10;99.90
5899;DHT22;2975;50.956;6.962;2024-01-11T07:01:51;-5.20;99.90
5899;DHT22;2975;50.956;6.962;2024-01-11T07:04:16;-5.20;99.90
5899;DHT22;2975;50.956;6.962;2024-01-11T07:06:42;-5.20;99.90
5899;DHT22;2975;50.956;6.962;2024-01-11T07:09:08;-5.30;99.90
5899;DHT22;2975;50.956;6.962;2024-01-11T07:11:33;-5.30;99.90
5899;DHT22;2975;50.956;6.962;2024-01-11T07:13:59;-5.20;99.90
5899;DHT22;2975;50.956;6.962;2024-01-11T07:16:24;-5.30;99.90
5899;DHT22;2975;50.956;6.962;2024-01-11T07:18:50;-5.30;99.90
5899;DHT22;2975;50.956;6.962;2024-01-11T07:21:23;-5.30;99.90
5899;DHT22;2975;50.956;6.962;2024-01-11T07:23:55;-5.30;99.90
5899;DHT22;2975;50.956;6.962;2024-01-11T07:26:22;-5.30;99.90
5899;DHT22;2975;50.956;6.962;2024-01-11T07:28:49;-5.30;99.90
5899;DHT22;2975;50.956;6.962;2024-01-11T07:31:14;-5.30;99.90
5899;DHT22;2975;50.956;6.962;2024-01-11T07:33:40;-5.20;99.90
5899;DHT22;2975;50.956;6.962;2024-01-11T07:36:06;-5.20;99.90
5899;DHT22;2975;50.956;6.962;2024-01-11T07:38:32;-5.20;99.90
5899;DHT22;2975;50.956;6.962;2024-01-11T07:40:57;-5.30;99.90
5899;DHT22;2975;50.956;6.962;2024-01-11T07:43:23;-5.30;99.90
5899;DHT22;2975;50.956;6.962;2024-01-11T07:45:49;-5.40;99.90
5899;DHT22;2975;50.956;6.962;2024-01-11T07:48:15;-5.50;99.90
5899;DHT22;2975;50.956;6.962;2024-01-11T07:50:41;-5.50;99.90
5899;DHT22;2975;50.956;6.962;2024-01-11T07:53:07;-5.40;99.90
5899;DHT22;2975;50.956;6.962;2024-01-11T07:55:32;-5.40;99.90
5899;DHT22;2975;50.956;6.962;2024-01-11T07:58:00;-5.40;99.90
5899;DHT22;2975;50.956;6.962;2024-01-11T08:00:25;-5.40;99.90
5899;DHT22;2975;50.956;6.962;2024-01-11T08:02:51;-5.40;99.90
5899;DHT22;2975;50.956;6.962;2024-01-11T08:05:17;-5.40;99.90
5899;DHT22;2975;50.956;6.962;2024-01-11T08:07:42;-5.30;99.90
5899;DHT22;2975;50.956;6.962;2024-01-11T08:10:08;-5.30;99.90
5899;DHT22;2975;50.956;6.962;2024-01-11T08:12:37;-5.30;99.90
5899;DHT22;2975;50.956;6.962;2024-01-11T08:15:03;-5.30;99.90
5899;DHT22;2975;50.956;6.962;2024-01-11T08:17:28;-5.30;99.90
5899;DHT22;2975;50.956;6.962;2024-01-11T08:19:54;-5.20;99.90
5899;DHT22;2975;50.956;6.962;2024-01-11T08:22:22;-5.10;99.90
5899;DHT22;2975;50.956;6.962;2024-01-11T08:24:48;-5.10;99.90
5899;DHT22;2975;50.956;6.962;2024-01-11T08:27:13;-5.00;99.90
5899;DHT22;2975;50.956;6.962;2024-01-11T08:29:42;-5.10;99.90
5899;DHT22;2975;50.956;6.962;2024-01-11T08:32:08;-4.90;99.90
5899;DHT22;2975;50.956;6.962;2024-01-11T08:34:34;-4.90;99.90
5899;DHT22;2975;50.956;6.962;2024-01-11T08:36:59;-4.90;99.90
5899;DHT22;2975;50.956;6.962;2024-01-11T08:39:25;-4.80;99.90
5899;DHT22;2975;50.956;6.962;2024-01-11T08:41:51;-4.80;99.90
5899;DHT22;2975;50.956;6.962;2024-01-11T08:44:18;-4.70;99.90
5899;DHT22;2975;50.956;6.962;2024-01-11T08:46:44;-4.60;99.90
5899;DHT22;2975;50.956;6.962;2024-01-11T08:49:09;-4.60;99.90
5899;DHT22;2975;50.956;6.962;2024-01-11T08:51:35;-4.50;99.90
5899;DHT22;2975;50.956;6.962;2024-01-11T08:54:01;-4.40;99.90
5899;DHT22;2975;50.956;6.962;2024-01-11T08:56:27;-4.20;99.90
5899;DHT22;2975;50.956;6.962;2024-01-11T08:58:53;-4.20;99.90
5899;DHT22;2975;50.956;6.962;2024-01-11T09:01:19;-4.20;99.90
5899;DHT22;2975;50.956;6.962;2024-01-11T09:03:45;-4.10;99.90
5899;DHT22;2975;50.956;6.962;2024-01-11T09:06:13;-4.20;99.90
5899;DHT22;2975;50.956;6.962;2024-01-11T09:08:39;-4.20;99.90
5899;DHT22;2975;50.956;6.962;2024-01-11T09:11:06;-4.20;99.90
5899;DHT22;2975;50.956;6.962;2024-01-11T09:13:32;-4.10;99.90
5899;DHT22;2975;50.956;6.962;2024-01-11T09:15:58;-3.90;99.90
5899;DHT22;2975;50.956;6.962;2024-01-11T09:18:24;-3.80;99.90
5899;DHT22;2975;50.956;6.962;2024-01-11T09:20:49;-3.70;99.90
5899;DHT22;2975;50.956;6.962;2024-01-11T09:23:16;-3.60;99.90
5899;DHT22;2975;50.956;6.962;2024-01-11T09:25:41;-3.50;99.90
5899;DHT22;2975;50.956;6.962;2024-01-11T09:28:07;-3.50;99.90
5899;DHT22;2975;50.956;6.962;2024-01-11T09:30:33;-3.40;99.90
5899;DHT22;2975;50.956;6.962;2024-01-11T09:32:58;-3.20;99.90
5899;DHT22;2975;50.956;6.962;2024-01-11T09:35:24;-3.20;99.90
5899;DHT22;2975;50.956;6.962;2024-01-11T09:37:50;-3.20;99.90
5899;DHT22;2975;50.956;6.962;2024-01-11T09:40:17;-3.20;99.90
5899;DHT22;2975;50.956;6.962;2024-01-11T09:42:43;-3.20;99.90
5899;DHT22;2975;50.956;6.962;2024-01-11T09:45:12;-3.10;99.90
5899;DHT22;2975;50.956;6.962;2024-01-11T09:47:39;-3.00;99.90
5899;DHT22;2975;50.956;6.962;2024-01-11T09:50:08;-3.00;99.90
5899;DHT22;2975;50.956;6.962;2024-01-11T09:52:34;-3.00;99.90
5899;DHT22;2975;50.956;6.962;2024-01-11T09:55:00;-2.90;99.90
5899;DHT22;2975;50.956;6.962;2024-01-11T09:57:31;-2.80;99.90
5899;DHT22;2975;50.956;6.962;2024-01-11T09:59:58;-2.90;99.90
5899;DHT22;2975;50.956;6.962;2024-01-11T10:02:25;-3.00;99.90
5899;DHT22;2975;50.956;6.962;2024-01-11T10:04:54;-2.90;99.90
5899;DHT22;2975;50.956;6.962;2024-01-11T10:07:23;-2.90;99.90
5899;DHT22;2975;50.956;6.962;2024-01-11T10:09:50;-2.90;99.90
5899;DHT22;2975;50.956;6.962;2024-01-11T10:12:20;-2.80;99.90
5899;DHT22;2975;50.956;6.962;2024-01-11T10:14:50;-2.80;99.90
5899;DHT22;2975;50.956;6.962;2024-01-11T10:17:17;-2.60;99.90
5899;DHT22;2975;50.956;6.962;2024-01-11T10:19:43;-2.60;99.90
5899;DHT22;2975;50.956;6.962;2024-01-11T10:22:09;-2.70;99.90
5899;DHT22;2975;50.956;6.962;2024-01-11T10:24:38;-2.40;99.90
5899;DHT22;2975;50.956;6.962;2024-01-11T10:27:04;-2.20;99.90
5899;DHT22;2975;50.956;6.962;2024-01-11T10:29:32;-2.10;99.90
5899;DHT22;2975;50.956;6.962;2024-01-11T10:31:58;-2.20;99.90
5899;DHT22;2975;50.956;6.962;2024-01-11T10:34:24;-2.20;99.90
5899;DHT22;2975;50.956;6.962;2024-01-11T10:36:50;-2.30;99.90
5899;DHT22;2975;50.956;6.962;2024-01-11T10:39:17;-2.30;99.90
5899;DHT22;2975;50.956;6.962;2024-01-11T10:41:47;-2.20;99.90
5899;DHT22;2975;50.956;6.962;2024-01-11T10:44:20;-2.20;99.90
5899;DHT22;2975;50.956;6.962;2024-01-11T10:46:50;-2.30;99.90
5899;DHT22;2975;50.956;6.962;2024-01-11T10:49:17;-2.10;99.90
5899;DHT22;2975;50.956;6.962;2024-01-11T10:51:53;-2.20;99.90
5899;DHT22;2975;50.956;6.962;2024-01-11T10:54:22;-2.10;99.90
5899;DHT22;2975;50.956;6.962;2024-01-11T10:56:48;-2.00;99.90
5899;DHT22;2975;50.956;6.962;2024-01-11T10:59:15;-2.00;99.90
5899;DHT22;2975;50.956;6.962;2024-01-11T11:01:42;-1.90;99.90
5899;DHT22;2975;50.956;6.962;2024-01-11T11:04:09;-1.90;99.90
5899;DHT22;2975;50.956;6.962;2024-01-11T11:06:35;-1.90;99.90
5899;DHT22;2975;50.956;6.962;2024-01-11T11:09:02;-1.90;99.90
5899;DHT22;2975;50.956;6.962;2024-01-11T11:11:30;-1.90;99.90
5899;DHT22;2975;50.956;6.962;2024-01-11T11:13:59;-1.80;99.90
5899;DHT22;2975;50.956;6.962;2024-01-11T11:16:26;-1.80;99.90
5899;DHT22;2975;50.956;6.962;2024-01-11T11:18:55;-1.90;99.90
5899;DHT22;2975;50.956;6.962;2024-01-11T11:21:21;-1.90;99.90
5899;DHT22;2975;50.956;6.962;2024-01-11T11:23:47;-1.90;99.90
5899;DHT22;2975;50.956;6.962;2024-01-11T11:26:15;-1.90;99.90
5899;DHT22;2975;50.956;6.962;2024-01-11T11:28:41;-1.80;99.90
5899;DHT22;2975;50.956;6.962;2024-01-11T11:31:07;-1.80;99.90
5899;DHT22;2975;50.956;6.962;2024-01-11T11:33:33;-1.80;99.90
5899;DHT22;2975;50.956;6.962;2024-01-11T11:36:00;-1.70;99.90
5899;DHT22;2975;50.956;6.962;2024-01-11T11:38:30;-1.70;99.90
5899;DHT22;2975;50.956;6.962;2024-01-11T11:40:57;-1.70;99.90
5899;DHT22;2975;50.956;6.962;2024-01-11T11:43:26;-1.70;99.90
5899;DHT22;2975;50.956;6.962;2024-01-11T11:45:52;-1.60;99.90
5899;DHT22;2975;50.956;6.962;2024-01-11T11:51:08;-1.50;99.90
5899;DHT22;2975;50.956;6.962;2024-01-11T11:53:35;-1.40;99.90
5899;DHT22;2975;50.956;6.962;2024-01-11T11:56:02;-1.40;99.90
5899;DHT22;2975;50.956;6.962;2024-01-11T11:58:28;-1.40;99.90
5899;DHT22;2975;50.956;6.962;2024-01-11T12:01:02;-1.30;99.90
5899;DHT22;2975;50.956;6.962;2024-01-11T12:03:33;-1.30;99.90
5899;DHT22;2975;50.956;6.962;2024-01-11T12:05:59;-1.20;99.90
5899;DHT22;2975;50.956;6.962;2024-01-11T12:08:25;-1.20;99.90
5899;DHT22;2975;50.956;6.962;2024-01-11T12:10:52;-1.20;99.90
5899;DHT22;2975;50.956;6.962;2024-01-11T12:13:18;-1.10;99.90
5899;DHT22;2975;50.956;6.962;2024-01-11T12:15:44;-1.10;99.90
5899;DHT22;2975;50.956;6.962;2024-01-11T12:18:09;-1.10;99.90
5899;DHT22;2975;50.956;6.962;2024-01-11T12:20:35;-1.00;99.90
5899;DHT22;2975;50.956;6.962;2024-01-11T12:23:01;-1.00;99.90
5899;DHT22;2975;50.956;6.962;2024-01-11T12:25:30;-0.90;99.90
5899;DHT22;2975;50.956;6.962;2024-01-11T12:27:57;-0.90;99.90
5899;DHT22;2975;50.956;6.962;2024-01-11T12:30:23;-0.90;99.90
5899;DHT22;2975;50.956;6.962;2024-01-11T12:32:50;-0.90;99.90
5899;DHT22;2975;50.956;6.962;2024-01-11T12:35:16;-0.80;99.90
5899;DHT22;2975;50.956;6.962;2024-01-11T12:37:55;-0.80;99.90
5899;DHT22;2975;50.956;6.962;2024-01-11T12:40:21;-0.70;99.90
5899;DHT22;2975;50.956;6.962;2024-01-11T12:42:48;-0.70;99.90
5899;DHT22;2975;50.956;6.962;2024-01-11T12:45:18;-0.70;99.90
5899;DHT22;2975;50.956;6.962;2024-01-11T12:47:44;-0.70;99.90
5899;DHT22;2975;50.956;6.962;2024-01-11T12:50:11;-0.60;99.90
5899;DHT22;2975;50.956;6.962;2024-01-11T12:52:38;-0.60;99.90
5899;DHT22;2975;50.956;6.962;2024-01-11T12:55:04;-0.60;99.90
5899;DHT22;2975;50.956;6.962;2024-01-11T12:57:29;-0.50;99.90
5899;DHT22;2975;50.956;6.962;2024-01-11T13:00:12;-0.50;99.90
5899;DHT22;2975;50.956;6.962;2024-01-11T13:02:39;-0.50;99.90
5899;DHT22;2975;50.956;6.962;2024-01-11T13:05:05;-0.50;99.90
5899;DHT22;2975;50.956;6.962;2024-01-11T13:07:32;-0.50;99.90
5899;DHT22;2975;50.956;6.962;2024-01-11T13:09:59;-0.50;99.90
5899;DHT22;2975;50.956;6.962;2024-01-11T13:12:24;-0.40;99.90
5899;DHT22;2975;50.956;6.962;2024-01-11T13:14:50;-0.40;99.90
5899;DHT22;2975;50.956;6.962;2024-01-11T13:17:18;-0.40;99.90
5899;DHT22;2975;50.956;6.962;2024-01-11T13:19:43;-0.30;99.90
5899;DHT22;2975;50.956;6.962;2024-01-11T13:22:10;-0.30;99.90
5899;DHT22;2975;50.956;6.962;2024-01-11T13:24:36;-0.30;99.90
5899;DHT22;2975;50.956;6.962;2024-01-11T13:27:01;-0.20;99.90
5899;DHT22;2975;50.956;6.962;2024-01-11T13:29:27;-0.10;99.90
5899;DHT22;2975;50.956;6.962;2024-01-11T13:31:53;-0.10;99.90
5899;DHT22;2975;50.956;6.962;2024-01-11T13:34:18;0.00;99.90
5899;DHT22;2975;50.956;6.962;2024-01-11T13:36:44;0.00;99.90
5899;DHT22;2975;50.956;6.962;2024-01-11T13:39:10;0.10;99.90
5899;DHT22;2975;50.956;6.962;2024-01-11T13:41:36;0.10;99.90
5899;DHT22;2975;50.956;6.962;2024-01-11T13:44:02;0.10;99.90
5899;DHT22;2975;50.956;6.962;2024-01-11T13:46:30;0.10;99.90
5899;DHT22;2975;50.956;6.962;2024-01-11T13:48:56;0.10;99.90
5899;DHT22;2975;50.956;6.962;2024-01-11T13:51:22;0.10;99.90
5899;DHT22;2975;50.956;6.962;2024-01-11T13:53:48;0.20;99.90
5899;DHT22;2975;50.956;6.962;2024-01-11T13:56:13;0.20;99.90
5899;DHT22;2975;50.956;6.962;2024-01-11T13:58:39;0.20;99.90
5899;DHT22;2975;50.956;6.962;2024-01-11T14:01:05;0.20;99.90
5899;DHT22;2975;50.956;6.962;2024-01-11T14:03:30;0.20;99.90
5899;DHT22;2975;50.956;6.962;2024-01-11T14:05:56;0.40;99.90
5899;DHT22;2975;50.956;6.962;2024-01-11T14:08:22;0.30;99.90
5899;DHT22;2975;50.956;6.962;2024-01-11T14:10:47;0.30;99.90
5899;DHT22;2975;50.956;6.962;2024-01-11T14:13:13;0.30;99.90
5899;DHT22;2975;50.956;6.962;2024-01-11T14:15:39;0.20;99.90
5899;DHT22;2975;50.956;6.962;2024-01-11T14:18:06;0.30;99.90
5899;DHT22;2975;50.956;6.962;2024-01-11T14:20:32;0.30;99.90
5899;DHT22;2975;50.956;6.962;2024-01-11T14:22:59;0.30;99.90
5899;DHT22;2975;50.956;6.962;2024-01-11T14:25:25;0.30;99.90
5899;DHT22;2975;50.956;6.962;2024-01-11T14:27:51;0.40;99.90
5899;DHT22;2975;50.956;6.962;2024-01-11T14:30:18;0.40;99.90
5899;DHT22;2975;50.956;6.962;2024-01-11T14:32:43;0.40;99.90
5899;DHT22;2975;50.956;6.962;2024-01-11T14:35:10;0.50;99.60
5899;DHT22;2975;50.956;6.962;2024-01-11T14:37:37;0.50;98.70
5899;DHT22;2975;50.956;6.962;2024-01-11T14:40:07;0.50;98.60
5899;DHT22;2975;50.956;6.962;2024-01-11T14:42:35;0.50;97.90
5899;DHT22;2975;50.956;6.962;2024-01-11T14:45:02;0.60;97.30
5899;DHT22;2975;50.956;6.962;2024-01-11T14:47:29;0.60;97.20
5899;DHT22;2975;50.956;6.962;2024-01-11T14:49:55;0.50;96.80
5899;DHT22;2975;50.956;6.962;2024-01-11T14:52:20;0.50;97.20
5899;DHT22;2975;50.956;6.962;2024-01-11T14:54:46;0.50;96.40
5899;DHT22;2975;50.956;6.962;2024-01-11T14:57:15;0.50;96.10
5899;DHT22;2975;50.956;6.962;2024-01-11T14:59:41;0.50;96.10
5899;DHT22;2975;50.956;6.962;2024-01-11T15:02:07;0.50;96.30
5899;DHT22;2975;50.956;6.962;2024-01-11T15:04:34;0.30;96.80
5899;DHT22;2975;50.956;6.962;2024-01-11T15:07:00;0.40;96.70
5899;DHT22;2975;50.956;6.962;2024-01-11T15:09:26;0.30;96.90
5899;DHT22;2975;50.956;6.962;2024-01-11T15:11:52;0.20;97.10
5899;DHT22;2975;50.956;6.962;2024-01-11T15:14:17;0.20;97.10
5899;DHT22;2975;50.956;6.962;2024-01-11T15:16:43;0.20;97.60
5899;DHT22;2975;50.956;6.962;2024-01-11T15:19:15;0.20;97.30
5899;DHT22;2975;50.956;6.962;2024-01-11T15:21:43;0.10;97.30
5899;DHT22;2975;50.956;6.962;2024-01-11T15:24:09;0.10;97.40
5899;DHT22;2975;50.956;6.962;2024-01-11T15:26:38;0.10;97.10
5899;DHT22;2975;50.956;6.962;2024-01-11T15:29:04;0.10;96.50
5899;DHT22;2975;50.956;6.962;2024-01-11T15:31:31;0.10;96.20
5899;DHT22;2975;50.956;6.962;2024-01-11T15:33:56;0.10;96.20
5899;DHT22;2975;50.956;6.962;2024-01-11T15:36:23;0.00;96.70
5899;DHT22;2975;50.956;6.962;2024-01-11T15:38:49;0.00;96.70
5899;DHT22;2975;50.956;6.962;2024-01-11T15:41:16;0.10;96.50
5899;DHT22;2975;50.956;6.962;2024-01-11T15:43:41;0.00;96.60
5899;DHT22;2975;50.956;6.962;2024-01-11T15:46:09;-0.10;97.00
5899;DHT22;2975;50.956;6.962;2024-01-11T15:48:35;-0.10;97.20
5899;DHT22;2975;50.956;6.962;2024-01-11T15:51:01;-0.20;96.80
5899;DHT22;2975;50.956;6.962;2024-01-11T15:53:26;-0.20;97.00
5899;DHT22;2975;50.956;6.962;2024-01-11T15:55:52;-0.30;97.40
5899;DHT22;2975;50.956;6.962;2024-01-11T15:58:17;-0.20;96.50
5899;DHT22;2975;50.956;6.962;2024-01-11T16:00:44;-0.20;96.20